Aviation Digital Data Service (ADDS)

Output produced by METARs form (1542 UTC 20 May 2018)
found at http://aviationweather.gov/adds/metars/
 
KEWN 201120Z 2012/2112 20007KT 4SM SHRA BR BKN030 
     FM201400 20009G14KT 5SM SHRA VCTS BKN030CB 
     FM202100 20009G15KT P6SM VCSH BKN050 
     FM210700 21007KT P6SM VCSH OVC110